createdAt,value
2022-10-16T00:02:25.076Z,101657.65
2022-10-16T00:05:14.968Z,101658.91
2022-10-16T00:08:04.923Z,101660.58
2022-10-16T00:10:54.623Z,101662.55
2022-10-16T00:13:47.275Z,101663.54
2022-10-16T00:16:37.766Z,101663.43
2022-10-16T00:19:27.758Z,101658.70
2022-10-16T00:22:17.528Z,101661.67
2022-10-16T00:25:08.446Z,101664.56
2022-10-16T00:27:58.527Z,101665.86
2022-10-16T00:30:48.616Z,101666.55
2022-10-16T00:33:40.449Z,101664.42
2022-10-16T00:36:31.855Z,101666.40
2022-10-16T00:39:23.607Z,101670.26
2022-10-16T00:42:19.057Z,101675.00
2022-10-16T00:45:11.804Z,101677.92
2022-10-16T00:48:02.346Z,101682.27
2022-10-16T00:50:52.714Z,101686.45
2022-10-16T00:53:43.101Z,101685.55
2022-10-16T00:56:34.380Z,101684.41
2022-10-16T00:59:27.973Z,101683.02
2022-10-16T01:02:19.845Z,101684.58
2022-10-16T01:05:11.410Z,101686.92
2022-10-16T01:08:11.416Z,101690.51
2022-10-16T01:11:09.812Z,101689.38
2022-10-16T01:14:04.325Z,101692.71
2022-10-16T01:17:00.539Z,101694.04
2022-10-16T01:20:07.647Z,101691.96
2022-10-16T01:23:23.476Z,101692.78
2022-10-16T01:26:23.042Z,101693.28
2022-10-16T01:29:20.894Z,101690.14
2022-10-16T01:32:17.632Z,101690.20
2022-10-16T01:35:12.000Z,101688.71
2022-10-16T01:38:07.030Z,101691.05
2022-10-16T01:41:03.211Z,101687.99
2022-10-16T01:43:59.158Z,101686.61
2022-10-16T01:46:52.989Z,101687.21
2022-10-16T01:49:45.211Z,101685.61
2022-10-16T01:52:37.226Z,101687.39
2022-10-16T01:55:35.416Z,101689.14
2022-10-16T01:58:27.549Z,101687.05
2022-10-16T02:01:21.203Z,101683.72
2022-10-16T02:04:18.932Z,101685.94
2022-10-16T02:07:09.191Z,101686.84
2022-10-16T02:09:59.522Z,101689.31
2022-10-16T02:12:53.231Z,101690.54
2022-10-16T02:15:43.673Z,101693.23
2022-10-16T02:18:34.372Z,101694.64
2022-10-16T02:21:29.725Z,101696.65
2022-10-16T02:24:26.431Z,101692.50
2022-10-16T02:27:26.214Z,101693.09
2022-10-16T02:30:21.821Z,101694.11
2022-10-16T02:33:15.332Z,101693.09
2022-10-16T02:36:05.994Z,101701.59
2022-10-16T02:38:57.738Z,101702.52
2022-10-16T02:41:48.489Z,101706.52
2022-10-16T02:44:38.580Z,101701.68
2022-10-16T02:47:28.584Z,101696.06
2022-10-16T02:50:19.068Z,101693.10
2022-10-16T02:53:09.214Z,101696.41
2022-10-16T02:55:59.739Z,101699.98
2022-10-16T02:58:50.173Z,101701.29
2022-10-16T03:01:40.417Z,101702.55
2022-10-16T03:04:30.799Z,101702.84
2022-10-16T03:07:20.931Z,101702.41
2022-10-16T03:10:12.484Z,101705.73
2022-10-16T03:13:02.357Z,101707.70
2022-10-16T03:15:52.351Z,101714.34
2022-10-16T03:18:42.565Z,101715.84
2022-10-16T03:21:32.088Z,101716.17
2022-10-16T03:24:22.019Z,101719.10
2022-10-16T03:27:12.411Z,101716.41
2022-10-16T03:30:02.551Z,101722.39
2022-10-16T03:32:55.303Z,101723.21
2022-10-16T03:35:45.026Z,101728.17
2022-10-16T03:38:35.065Z,101728.59
2022-10-16T03:41:25.204Z,101729.98
2022-10-16T03:44:15.289Z,101731.11
2022-10-16T03:47:04.944Z,101733.27
2022-10-16T03:49:54.852Z,101736.25
2022-10-16T03:52:44.693Z,101726.41
2022-10-16T03:55:34.403Z,101723.79
2022-10-16T03:58:24.505Z,101729.09
2022-10-16T04:01:14.545Z,101734.47
2022-10-16T04:04:04.864Z,101731.11
2022-10-16T04:06:54.870Z,101733.08
2022-10-16T04:09:44.797Z,101730.02
2022-10-16T04:12:34.545Z,101732.81
2022-10-16T04:15:24.851Z,101735.69
2022-10-16T04:18:15.643Z,101735.33
2022-10-16T04:21:08.711Z,101731.44
2022-10-16T04:23:58.702Z,101734.80
2022-10-16T04:26:48.292Z,101734.05
2022-10-16T04:29:38.124Z,101736.19
2022-10-16T04:32:28.132Z,101735.92
2022-10-16T04:35:19.854Z,101738.60
2022-10-16T04:38:10.133Z,101741.31
2022-10-16T04:41:01.357Z,101744.91
2022-10-16T04:43:51.855Z,101749.95
2022-10-16T04:46:41.807Z,101750.33
2022-10-16T04:49:31.782Z,101747.53
2022-10-16T04:52:22.788Z,101749.83
2022-10-16T04:55:13.490Z,101752.94
2022-10-16T04:58:03.821Z,101753.41
2022-10-16T05:00:53.703Z,101753.44
2022-10-16T05:03:44.412Z,101754.50
2022-10-16T05:06:34.980Z,101754.88
2022-10-16T05:09:25.133Z,101758.60
2022-10-16T05:12:15.393Z,101760.79
2022-10-16T05:15:06.026Z,101766.23
2022-10-16T05:17:57.812Z,101769.42
2022-10-16T05:20:48.079Z,101771.32
2022-10-16T05:23:38.066Z,101772.94
2022-10-16T05:26:28.006Z,101774.67
2022-10-16T05:29:17.858Z,101774.23
2022-10-16T05:32:07.501Z,101775.42
2022-10-16T05:34:57.325Z,101775.25
2022-10-16T05:37:47.374Z,101775.25
2022-10-16T05:40:37.363Z,101779.53
2022-10-16T05:43:29.123Z,101783.68
2022-10-16T05:46:19.660Z,101784.33
2022-10-16T05:49:09.365Z,101790.86
2022-10-16T05:51:59.134Z,101794.98
2022-10-16T05:54:48.815Z,101797.95
2022-10-16T05:57:39.619Z,101798.50
2022-10-16T06:00:29.960Z,101799.34
2022-10-16T06:03:20.258Z,101804.36
2022-10-16T06:06:15.386Z,101811.75
2022-10-16T06:09:06.420Z,101814.04
2022-10-16T06:11:56.327Z,101816.34
2022-10-16T06:14:47.927Z,101821.99
2022-10-16T06:17:38.180Z,101827.88
2022-10-16T06:20:28.435Z,101826.38
2022-10-16T06:23:18.603Z,101832.42
2022-10-16T06:26:13.679Z,101833.95
2022-10-16T06:29:04.110Z,101835.25
2022-10-16T06:31:54.430Z,101838.67
2022-10-16T06:34:44.367Z,101840.60
2022-10-16T06:37:34.404Z,101844.80
2022-10-16T06:40:24.463Z,101848.30
2022-10-16T06:43:15.161Z,101854.33
2022-10-16T06:46:06.162Z,101859.48
2022-10-16T06:48:56.189Z,101860.99
2022-10-16T06:51:46.010Z,101862.73
2022-10-16T06:54:42.029Z,101866.15
2022-10-16T06:57:33.042Z,101868.91
2022-10-16T07:03:19.578Z,101874.73
2022-10-16T07:06:13.148Z,101879.16
2022-10-16T07:09:06.232Z,101883.27
2022-10-16T07:11:56.307Z,101888.27
2022-10-16T07:14:46.737Z,101890.98
2022-10-16T07:17:36.656Z,101893.11
2022-10-16T07:20:26.429Z,101900.77
2022-10-16T07:23:16.322Z,101903.71
2022-10-16T07:26:07.252Z,101907.55
2022-10-16T07:28:57.951Z,101911.57
2022-10-16T07:31:48.977Z,101912.83
2022-10-16T07:34:38.792Z,101912.08
2022-10-16T07:37:29.512Z,101913.45
2022-10-16T07:40:19.820Z,101918.39
2022-10-16T07:43:09.402Z,101919.25
2022-10-16T07:46:02.470Z,101923.20
2022-10-16T07:48:55.524Z,101931.36
2022-10-16T07:51:45.538Z,101930.90
2022-10-16T07:54:35.776Z,101938.78
2022-10-16T07:57:26.854Z,101943.05
2022-10-16T08:00:18.520Z,101946.26
2022-10-16T08:03:08.808Z,101949.48
2022-10-16T08:06:00.668Z,101952.48
2022-10-16T08:08:50.926Z,101955.16
2022-10-16T08:11:41.232Z,101952.13
2022-10-16T08:14:31.517Z,101954.30
2022-10-16T08:17:21.284Z,101957.50
2022-10-16T08:20:13.654Z,101958.49
2022-10-16T08:23:04.185Z,101957.29
2022-10-16T08:25:55.261Z,101957.20
2022-10-16T08:28:44.999Z,101955.83
2022-10-16T08:31:35.451Z,101958.75
2022-10-16T08:34:25.365Z,101959.31
2022-10-16T08:37:15.894Z,101963.35
2022-10-16T08:40:08.060Z,101963.95
2022-10-16T08:43:27.373Z,101965.83
2022-10-16T08:46:30.274Z,101969.91
2022-10-16T08:49:21.053Z,101968.23
2022-10-16T08:52:15.626Z,101974.81
2022-10-16T08:55:06.813Z,101972.98
2022-10-16T08:57:57.191Z,101977.43
2022-10-16T09:00:49.948Z,101979.01
2022-10-16T09:03:55.511Z,101982.77
2022-10-16T09:06:53.772Z,101987.19
2022-10-16T09:10:01.880Z,101987.34
2022-10-16T09:13:00.475Z,101990.98
2022-10-16T09:15:57.201Z,101994.60
2022-10-16T09:18:53.058Z,101989.83
2022-10-16T09:21:46.540Z,101989.27
2022-10-16T09:24:36.329Z,101996.44
2022-10-16T09:27:26.918Z,101997.58
2022-10-16T09:30:20.766Z,101993.05
2022-10-16T09:33:13.170Z,101991.07
2022-10-16T09:36:05.611Z,101991.95
2022-10-16T09:39:08.069Z,101994.44
2022-10-16T09:41:58.892Z,101997.58
2022-10-16T09:44:52.220Z,101999.30
2022-10-16T09:47:45.591Z,101999.54
2022-10-16T09:50:35.514Z,102001.39
2022-10-16T09:53:25.497Z,102004.30
2022-10-16T09:56:24.399Z,102006.52
2022-10-16T09:59:16.508Z,102009.61
2022-10-16T10:02:16.703Z,102011.94
2022-10-16T10:05:19.335Z,102012.66
2022-10-16T10:08:18.023Z,102010.73
2022-10-16T10:11:07.456Z,102015.96
2022-10-16T10:14:07.983Z,102015.75
2022-10-16T10:17:14.034Z,102015.64
2022-10-16T10:20:17.549Z,102014.06
2022-10-16T10:23:24.432Z,102014.96
2022-10-16T10:26:20.528Z,102011.88
2022-10-16T10:29:18.312Z,102014.14
2022-10-16T10:32:22.001Z,102015.16
2022-10-16T10:35:21.863Z,102018.02
2022-10-16T10:38:25.557Z,102016.59
2022-10-16T10:41:43.516Z,102016.32
2022-10-16T10:44:53.735Z,102016.42
2022-10-16T10:47:51.281Z,102016.42
2022-10-16T10:50:45.605Z,102013.99
2022-10-16T10:53:46.841Z,102009.54
2022-10-16T10:56:49.508Z,102012.12
2022-10-16T11:00:00.757Z,102009.79
2022-10-16T11:02:57.320Z,102010.02
2022-10-16T11:05:52.629Z,102009.86
2022-10-16T11:08:47.797Z,102007.90
2022-10-16T11:11:43.583Z,102008.55
2022-10-16T11:14:37.253Z,102011.69
2022-10-16T11:17:30.827Z,102011.80
2022-10-16T11:20:25.238Z,102009.56
2022-10-16T11:23:24.108Z,102010.71
2022-10-16T11:26:20.747Z,102009.24
2022-10-16T11:29:18.614Z,102006.48
2022-10-16T11:32:22.063Z,102007.90
2022-10-16T11:35:21.980Z,102006.20
2022-10-16T11:38:17.973Z,102006.30
2022-10-16T11:41:17.853Z,102005.65
2022-10-16T11:44:30.985Z,102000.90
2022-10-16T11:50:51.585Z,102001.93
2022-10-16T11:53:53.364Z,101999.03
2022-10-16T11:56:46.988Z,101996.79
2022-10-16T11:59:44.765Z,101996.24
2022-10-16T12:02:42.781Z,101992.11
2022-10-16T12:05:48.846Z,101991.14
2022-10-16T12:08:39.756Z,101991.55
2022-10-16T12:11:39.014Z,101990.78
2022-10-16T12:15:14.692Z,101990.17
2022-10-16T12:17:56.180Z,101991.44
2022-10-16T12:21:00.157Z,101989.83
2022-10-16T12:23:56.052Z,101991.52
2022-10-16T12:26:48.747Z,101988.23
2022-10-16T12:29:41.538Z,101992.26
2022-10-16T12:32:52.467Z,101989.77
2022-10-16T12:35:48.905Z,101986.90
2022-10-16T12:38:49.734Z,101987.79
2022-10-16T12:41:41.263Z,101986.55
2022-10-16T12:44:36.863Z,101987.02
2022-10-16T12:47:47.989Z,101987.73
2022-10-16T12:50:41.970Z,101990.05
2022-10-16T12:53:32.913Z,101986.98
2022-10-16T12:56:33.616Z,101987.75
2022-10-16T12:59:36.566Z,101988.55
2022-10-16T13:02:59.565Z,101988.32
2022-10-16T13:06:02.614Z,101987.58
2022-10-16T13:09:13.166Z,101983.08
2022-10-16T13:12:18.083Z,101982.34
2022-10-16T13:15:28.988Z,101982.65
2022-10-16T13:18:24.497Z,101983.02
2022-10-16T13:21:30.618Z,101981.88
2022-10-16T13:24:38.875Z,101980.88
2022-10-16T13:27:36.807Z,101979.46
2022-10-16T13:30:30.706Z,101979.42
2022-10-16T13:33:26.347Z,101979.34
2022-10-16T13:36:25.448Z,101979.18
2022-10-16T13:39:23.268Z,101979.92
2022-10-16T13:42:17.677Z,101981.11
2022-10-16T13:45:20.095Z,101984.39
2022-10-16T13:48:14.399Z,101981.79
2022-10-16T13:51:07.204Z,101977.84
2022-10-16T13:53:59.145Z,101981.01
2022-10-16T13:56:57.749Z,101979.44
2022-10-16T13:59:53.138Z,101975.98
2022-10-16T14:02:44.554Z,101977.65
2022-10-16T14:05:34.745Z,101978.09
2022-10-16T14:08:26.865Z,101978.21
2022-10-16T14:11:22.897Z,101979.38
2022-10-16T14:14:15.111Z,101983.17
2022-10-16T14:17:06.051Z,101990.50
2022-10-16T14:20:00.916Z,101989.39
2022-10-16T14:23:02.467Z,101991.46
2022-10-16T14:25:52.388Z,101996.51
2022-10-16T14:28:44.113Z,101997.38
2022-10-16T14:31:37.521Z,102001.77
2022-10-16T14:34:31.497Z,102002.35
2022-10-16T14:37:29.371Z,102000.27
2022-10-16T14:40:20.284Z,101999.58
2022-10-16T14:43:20.354Z,102000.27
2022-10-16T14:46:17.168Z,102005.62
2022-10-16T14:49:20.206Z,102007.27
2022-10-16T14:52:14.562Z,102011.13
2022-10-16T14:55:04.945Z,102010.91
2022-10-16T14:57:58.348Z,102009.37
2022-10-16T15:00:51.304Z,102012.49
2022-10-16T15:03:41.933Z,102009.90
2022-10-16T15:06:31.925Z,102006.73
2022-10-16T15:09:22.072Z,102008.22
2022-10-16T15:12:12.416Z,102010.56
2022-10-16T15:15:02.092Z,102008.20
2022-10-16T15:17:53.806Z,102012.64
2022-10-16T15:20:44.346Z,102016.25
2022-10-16T15:23:34.116Z,102015.19
2022-10-16T15:26:24.226Z,102017.65
2022-10-16T15:29:14.794Z,102015.88
2022-10-16T15:32:05.232Z,102019.24
2022-10-16T15:34:55.847Z,102019.81
2022-10-16T15:37:45.760Z,102019.08
2022-10-16T15:40:36.073Z,102020.02
2022-10-16T15:43:26.480Z,102019.50
2022-10-16T15:46:17.234Z,102027.31
2022-10-16T15:49:08.015Z,102026.02
2022-10-16T15:51:58.649Z,102029.97
2022-10-16T15:54:53.417Z,102031.14
2022-10-16T15:57:45.209Z,102031.23
2022-10-16T16:00:35.320Z,102032.70
2022-10-16T16:03:25.627Z,102030.14
2022-10-16T16:06:17.084Z,102025.05
2022-10-16T16:09:06.875Z,102018.45
2022-10-16T16:11:56.983Z,102020.59
2022-10-16T16:14:49.630Z,102020.67
2022-10-16T16:17:40.161Z,102020.95
2022-10-16T16:20:30.536Z,102021.39
2022-10-16T16:23:21.452Z,102022.36
2022-10-16T16:26:15.674Z,102024.83
2022-10-16T16:29:06.369Z,102024.14
2022-10-16T16:31:58.344Z,102029.67
2022-10-16T16:34:48.514Z,102026.98
2022-10-16T16:37:38.539Z,102023.89
2022-10-16T16:40:29.707Z,102024.11
2022-10-16T16:43:19.841Z,102024.69
2022-10-16T16:46:10.570Z,102030.61
2022-10-16T16:49:02.013Z,102034.70
2022-10-16T16:51:52.697Z,102036.34
2022-10-16T16:54:42.936Z,102036.73
2022-10-16T16:57:33.435Z,102041.52
2022-10-16T17:00:23.549Z,102042.48
2022-10-16T17:03:14.523Z,102042.75
2022-10-16T17:06:06.660Z,102049.77
2022-10-16T17:08:56.459Z,102053.23
2022-10-16T17:11:47.051Z,102057.86
2022-10-16T17:14:37.102Z,102061.22
2022-10-16T17:17:26.963Z,102069.18
2022-10-16T17:20:17.409Z,102071.96
2022-10-16T17:23:07.051Z,102074.52
2022-10-16T17:25:57.384Z,102079.36
2022-10-16T17:28:48.044Z,102080.85
2022-10-16T17:31:39.442Z,102084.15
2022-10-16T17:34:29.572Z,102090.84
2022-10-16T17:37:19.833Z,102096.41
2022-10-16T17:43:03.111Z,102103.23
2022-10-16T17:45:52.877Z,102109.38
2022-10-16T17:48:44.483Z,102113.42
2022-10-16T17:51:34.742Z,102115.21
2022-10-16T17:54:24.816Z,102118.30
2022-10-16T17:57:15.253Z,102126.23
2022-10-16T18:00:05.221Z,102129.26
2022-10-16T18:02:55.058Z,102139.73
2022-10-16T18:05:45.140Z,102144.07
2022-10-16T18:08:36.717Z,102143.87
2022-10-16T18:11:28.101Z,102151.12
2022-10-16T18:14:19.597Z,102150.75
2022-10-16T18:17:10.154Z,102153.77
2022-10-16T18:20:00.572Z,102151.10
2022-10-16T18:22:50.710Z,102149.37
2022-10-16T18:25:40.774Z,102145.67
2022-10-16T18:28:32.490Z,102146.58
2022-10-16T18:31:25.773Z,102148.60
2022-10-16T18:34:16.359Z,102151.26
2022-10-16T18:37:06.099Z,102154.48
2022-10-16T18:39:55.761Z,102154.45
2022-10-16T18:42:45.693Z,102158.40
2022-10-16T18:45:35.948Z,102159.45
2022-10-16T18:48:25.989Z,102161.24
2022-10-16T18:51:20.004Z,102163.18
2022-10-16T18:54:12.989Z,102163.64
2022-10-16T18:57:03.294Z,102171.17
2022-10-16T18:59:53.800Z,102175.72
2022-10-16T19:02:43.621Z,102175.53
2022-10-16T19:05:36.392Z,102179.44
2022-10-16T19:08:26.713Z,102183.89
2022-10-16T19:11:18.591Z,102185.79
2022-10-16T19:14:08.841Z,102185.77
2022-10-16T19:16:59.541Z,102185.80
2022-10-16T19:19:49.424Z,102188.98
2022-10-16T19:22:54.168Z,102188.21
2022-10-16T19:25:44.135Z,102191.59
2022-10-16T19:28:34.181Z,102187.67
2022-10-16T19:31:26.484Z,102186.06
2022-10-16T19:34:16.646Z,102190.98
2022-10-16T19:37:06.492Z,102197.23
2022-10-16T19:39:56.338Z,102199.81
2022-10-16T19:42:48.515Z,102199.91
2022-10-16T19:45:38.333Z,102205.44
2022-10-16T19:48:30.050Z,102209.17
2022-10-16T19:51:21.289Z,102208.41
2022-10-16T19:54:13.340Z,102215.20
2022-10-16T19:57:03.489Z,102220.44
2022-10-16T19:59:56.055Z,102220.17
2022-10-16T20:02:46.133Z,102221.11
2022-10-16T20:05:36.075Z,102227.80
2022-10-16T20:08:26.885Z,102234.61
2022-10-16T20:11:18.185Z,102231.20
2022-10-16T20:14:08.969Z,102232.41
2022-10-16T20:16:58.959Z,102233.89
2022-10-16T20:19:48.759Z,102238.90
2022-10-16T20:22:38.419Z,102241.30
2022-10-16T20:25:28.382Z,102245.29
2022-10-16T20:28:20.669Z,102243.64
2022-10-16T20:31:12.317Z,102249.51
2022-10-16T20:34:06.293Z,102250.92
2022-10-16T20:36:56.250Z,102255.21
2022-10-16T20:39:46.113Z,102256.30
2022-10-16T20:42:35.730Z,102258.30
2022-10-16T20:45:26.071Z,102260.27
2022-10-16T20:48:17.020Z,102260.14
2022-10-16T20:51:16.861Z,102264.46
2022-10-16T20:54:08.897Z,102266.36
2022-10-16T20:56:59.354Z,102269.48
2022-10-16T20:59:50.976Z,102277.64
2022-10-16T21:02:41.482Z,102281.04
2022-10-16T21:05:31.882Z,102282.33
2022-10-16T21:08:21.587Z,102282.53
2022-10-16T21:11:17.075Z,102284.72
2022-10-16T21:14:08.460Z,102289.66
2022-10-16T21:16:58.280Z,102293.20
2022-10-16T21:19:48.241Z,102298.27
2022-10-16T21:22:38.152Z,102304.29
2022-10-16T21:25:27.893Z,102302.48
2022-10-16T21:28:18.200Z,102304.12
2022-10-16T21:31:18.971Z,102305.53
2022-10-16T21:34:08.899Z,102306.25
2022-10-16T21:36:58.557Z,102305.85
2022-10-16T21:39:48.827Z,102306.81
2022-10-16T21:42:38.975Z,102303.56
2022-10-16T21:45:28.894Z,102302.45
2022-10-16T21:48:19.994Z,102300.98
2022-10-16T21:51:11.108Z,102303.73
2022-10-16T21:54:01.709Z,102303.36
2022-10-16T21:56:52.509Z,102304.42
2022-10-16T21:59:42.120Z,102301.56
2022-10-16T22:02:31.844Z,102297.74
2022-10-16T22:05:21.641Z,102299.01
2022-10-16T22:08:12.548Z,102299.10
2022-10-16T22:11:07.433Z,102297.95
2022-10-16T22:13:58.155Z,102296.88
2022-10-16T22:16:49.079Z,102297.83
2022-10-16T22:19:39.056Z,102292.37
2022-10-16T22:22:29.433Z,102288.76
2022-10-16T22:25:19.147Z,102287.04
2022-10-16T22:28:09.403Z,102289.17
2022-10-16T22:31:01.876Z,102287.60
2022-10-16T22:33:56.847Z,102286.04
2022-10-16T22:36:49.602Z,102288.83
2022-10-16T22:39:40.234Z,102285.89
2022-10-16T22:42:30.460Z,102280.08
2022-10-16T22:45:21.167Z,102280.22
2022-10-16T22:48:12.681Z,102274.38
2022-10-16T22:51:03.534Z,102279.66
2022-10-16T22:53:53.900Z,102275.87
2022-10-16T22:56:44.611Z,102272.52
2022-10-16T22:59:35.501Z,102273.58
2022-10-16T23:02:25.931Z,102276.73
2022-10-16T23:05:16.127Z,102276.17
2022-10-16T23:08:07.190Z,102276.54
2022-10-16T23:11:00.934Z,102273.48
2022-10-16T23:13:51.993Z,102272.80
2022-10-16T23:16:42.062Z,102276.61
2022-10-16T23:19:32.576Z,102279.12
2022-10-16T23:22:22.790Z,102273.80
2022-10-16T23:25:13.057Z,102274.48
2022-10-16T23:28:02.941Z,102278.23
2022-10-16T23:30:52.945Z,102276.73
2022-10-16T23:33:43.212Z,102279.13
2022-10-16T23:36:33.403Z,102280.98
2022-10-16T23:39:24.037Z,102279.66
2022-10-16T23:42:14.496Z,102279.81
2022-10-16T23:45:04.702Z,102277.98
2022-10-16T23:47:55.088Z,102278.64
2022-10-16T23:50:45.380Z,102279.84
2022-10-16T23:53:35.775Z,102283.23
2022-10-16T23:56:25.982Z,102285.38
2022-10-16T23:59:15.877Z,102290.30
